Logo AVAMET
Benvolgut visitant, si us plau, ingressa Recuperar contrasenya

el Campello centre

Dades diàries. Acumulats / Últims 30 dies disponibles

Data Temperatura (°C) Humitat rel. (%) Pressió rel. (hPa) Vent (km/h) Precipitació
Mínima Mitjana Màxima Amplitud
tèrmica
Mínima Mitjana Màxima Mínima Mitjana Màxima Predom. Mitjana Ràfega
màxima
Total
(mm)
Índex-n
Mínima Mitjana Màxima Mínima Mitjana Màxima n
0 a 1
P0 max
mm 5'
Dades mensuals acumulades fins l'últim dia disponible
12/2019 10,4 11,1 12,2 13,8 14,8 16,5 17,6 7,2 63 80 97 1.004 1.012 1.017   45,0 44,4
Dades anuals acumulades fins l'últim dia disponible
2019 4,6 15,3 26,9 19,2 13,1 23,0 35,1 30,5 12 66 98 995 1.018 1.036   85,0 339,8
Últims 30 dies disponibles
04-12-2019 10,5     13,2     15,8 5,3 64 77 90 1.004 1.008 1.011 31,0 18,6
03-12-2019 11,2     13,0     14,8 3,6 63 80 97 1.008 1.013 1.017 45,0 1,8
02-12-2019 12,2     14,9     17,6 5,4 69 83 97 1.011 1.014 1.017 42,0 24,0
01-12-2019 10,4     14,0     17,6 7,2 71 82 92 1.012 1.014 1.015 21,0 0,0
30-11-2019 12,6     17,2     21,8 9,2 53 70 87 1.015 1.019 1.022 24,0 0,0
29-11-2019 14,3     17,9     21,4 7,1 55 72 88 1.017 1.020 1.022 27,0 0,0
28-11-2019 14,7     17,9     21,1 6,4 48 62 75 1.015 1.017 1.019 48,0 0,0
27-11-2019 13,2     17,9     22,6 9,4 43 64 84 1.011 1.014 1.016 47,0 0,0
26-11-2019 13,9     18,1     22,4 8,5 48 66 84 1.011 1.014 1.017 43,0 0,0
25-11-2019 13,6     18,0     22,4 8,8 53 63 73 1.014 1.016 1.017 42,0 0,0
24-11-2019 12,1     14,9     17,8 5,7 42 50 58 1.009 1.013 1.016 58,0 0,0
23-11-2019 11,9     14,6     17,2 5,3 43 67 91 996 1.003 1.010 68,0 0,0
22-11-2019 10,6     12,7     14,7 4,1 75 86 96 997 1.003 1.009 16,0 12,8
21-11-2019 8,4     12,6     16,7 8,3 60 74 87 1.009 1.011 1.012 18,0 0,2
20-11-2019 8,7     12,6     16,4 7,7 48 68 87 1.011 1.014 1.016 18,0 0,4
19-11-2019 7,5     11,8     16,0 8,5 35 50 64 1.016 1.018 1.019 27,0 0,0
18-11-2019 9,2     13,5     17,8 8,6 48 70 91 1.008 1.013 1.018 29,0 1,4
17-11-2019 8,5     13,2     17,8 9,3 37 62 87 1.011 1.014 1.017 47,0 1,6
16-11-2019 9,9     12,9     15,9 6,0 42 50 58 1.008 1.013 1.017 45,0 0,0
15-11-2019 10,1     12,7     15,2 5,1 39 50 60 1.003 1.006 1.008 47,0 0,0
14-11-2019 10,7     14,1     17,4 6,7 46 69 92 1.002 1.007 1.012 55,0 0,0
13-11-2019 13,7     18,2     22,8 9,1 40 63 86 1.007 1.011 1.014 51,0 0,2
12-11-2019 11,9     15,8     19,6 7,7 30 41 51 1.011 1.013 1.014 47,0 0,0
11-11-2019 8,4     13,3     18,3 9,9 35 47 59 1.012 1.014 1.016 40,0 0,0
10-11-2019 12,3     14,7     17,0 4,7 35 52 69 1.012 1.014 1.015 68,0 0,0
09-11-2019 12,6     15,8     18,9 6,3 31 55 78 1.015 1.018 1.021 48,0 0,2
08-11-2019 11,1     14,0     16,9 5,8 34 49 63 1.012 1.016 1.019 55,0 0,0
07-11-2019 12,8     17,3     21,8 9,0 28 47 65 1.009 1.012 1.015 40,0 0,0
06-11-2019 14,9     18,4     21,8 6,9 32 45 57 1.013 1.015 1.016 66,0 0,0
05-11-2019 16,6     18,6     20,6 4,0 37 53 68 1.008 1.011 1.014 61,0 0,0
Últims 13 mesos disponibles
10/2018 9,4 16,1 18,9 19,9 15,6 23,7 27,1 17,7 41 69 82 1.001 1.016 1.027 68,0 62,0
09/2018 17,2 21,6 24,2 25,1 25,8 28,5 30,6 13,4 64 74 81 1.013 1.020 1.028 45,0 42,8
08/2018 19,7 23,8 27,6 27,3 28,1 30,7 34,9 15,2 51 71 85 1.014 1.017 1.022 51,0 20,0
07/2018 20,8 22,8 24,2 26,4 27,7 30,0 35,7 14,9 48 70 80 1.011 1.016 1.021 48,0 0,0
06/2018 14,2 19,6 23,1 23,2 23,4 26,8 29,3 15,1 54 68 81 1.011 1.016 1.022 51,0 18,6
05/2018 10,4 15,3 19,7 18,9 18,3 22,5 26,3 15,9 48 70 86 1.012 1.016 1.019 43,0 5,4
04/2018 9,4 13,1 19,1 17,0 15,5 20,9 25,4 16,0 44 62 86 1.000 1.015 1.026 64,0 4,0
03/2018 5,2 10,9 15,5 14,9 13,4 18,9 27,1 21,9 42 57 80 996 1.010 1.024 74,0 12,0
12/2017 5,2 9,0 15,6 13,3 12,9 17,5 23,8 18,6 35 58 77 1.002 1.025 1.037 74,0 1,2
11/2017 8,1 11,8 16,7 15,8 15,6 19,8 24,3 16,2 34 62 84 1.009 1.020 1.029 50,0 6,0
10/2017 14,4 17,3 20,7 21,1 22,9 24,9 27,1 12,7 55 72 79 1.013 1.023 1.028 45,0 12,6
09/2017 17,6 19,8 23,1 23,7 24,0 27,6 33,0 15,4 46 69 79 1.008 1.019 1.025 40,0 3,4
08/2017 17,5 22,9 28,7 26,4 25,9 29,8 33,7 16,2 63 74 83 1.013 1.017 1.022 60,0 44,4
Tots els anys disponibles
2015 3,3 15,6 22,7 18,9 20,8 22,3 37,0 33,7 58 67 74 1.017 1.021 1.031 74,0 195,4
2014 3,6 15,7 25,1 19,1 11,6 22,4 35,9 32,3 41 763 1.028 38 320 1.034 95,0 86,8
2013 3,5 14,9 18,9 18,3 19,9 21,7 32,8 29,3 55 64 72 1.009 1.018 1.026 97,0 226,4
2012
Temperatura (°C)
Humitat relativa (%)
Velocitat del vent i ràfega màxima (km/h)
Direcció del vent (°)
Pressió (hPa)
Precipitació (mm)
Nota sobre les dades: s'avisa a l'usuari de la provisionalitat i no oficialitat d'aquestes dades
Logo AVAMET blanc
Web allotjada a Sollutia
Llicència de Creative CommonsLa web d'AVAMET i els seus continguts estan subjectes a una llicència de
Reconeixement - No Comercial - Compartir igual
Últimes estacions: Aielo de Malferit - Centre (Soci), Faura (Inforatge), Benifairó de les Valls (Inforatge), Xàbia - Les Valls (Soci), Xàbia - Alt de la Granadella (Soci), Villena - Sierra de Salinas (Soci), Sueca - Centre (Inforatge) - - -